sensor_id;sensor_type;location;lat;lon;timestamp;P1;durP1;ratioP1;P2;durP2;ratioP2
20369;SDS011;10344;47.592;9.600;2022-08-21T00:00:09;2.00;;;1.30;;
20369;SDS011;10344;47.592;9.600;2022-08-21T00:02:44;1.40;;;1.30;;
20369;SDS011;10344;47.592;9.600;2022-08-21T00:05:13;1.30;;;1.20;;
20369;SDS011;10344;47.592;9.600;2022-08-21T00:07:39;1.30;;;1.20;;
20369;SDS011;10344;47.592;9.600;2022-08-21T00:10:05;1.92;;;1.30;;
20369;SDS011;10344;47.592;9.600;2022-08-21T00:12:33;1.70;;;1.30;;
20369;SDS011;10344;47.592;9.600;2022-08-21T00:14:59;1.40;;;1.30;;
20369;SDS011;10344;47.592;9.600;2022-08-21T00:17:27;1.67;;;1.40;;
20369;SDS011;10344;47.592;9.600;2022-08-21T00:19:53;1.50;;;1.40;;
20369;SDS011;10344;47.592;9.600;2022-08-21T00:22:18;1.90;;;1.30;;
20369;SDS011;10344;47.592;9.600;2022-08-21T00:24:44;1.50;;;1.40;;
20369;SDS011;10344;47.592;9.600;2022-08-21T00:27:10;1.20;;;1.10;;
20369;SDS011;10344;47.592;9.600;2022-08-21T00:29:35;0.90;;;0.90;;
20369;SDS011;10344;47.592;9.600;2022-08-21T00:32:01;1.60;;;1.40;;
20369;SDS011;10344;47.592;9.600;2022-08-21T00:34:27;1.40;;;1.30;;
20369;SDS011;10344;47.592;9.600;2022-08-21T00:36:55;1.30;;;1.20;;
20369;SDS011;10344;47.592;9.600;2022-08-21T00:39:23;1.42;;;1.20;;
20369;SDS011;10344;47.592;9.600;2022-08-21T00:41:49;1.30;;;1.20;;
20369;SDS011;10344;47.592;9.600;2022-08-21T00:44:15;1.80;;;1.27;;
20369;SDS011;10344;47.592;9.600;2022-08-21T00:46:41;1.70;;;1.30;;
20369;SDS011;10344;47.592;9.600;2022-08-21T00:49:11;1.20;;;1.10;;
20369;SDS011;10344;47.592;9.600;2022-08-21T00:51:48;1.17;;;1.08;;
20369;SDS011;10344;47.592;9.600;2022-08-21T00:54:18;2.25;;;1.40;;
20369;SDS011;10344;47.592;9.600;2022-08-21T00:56:57;1.83;;;1.23;;
20369;SDS011;10344;47.592;9.600;2022-08-21T00:59:26;1.57;;;1.10;;
20369;SDS011;10344;47.592;9.600;2022-08-21T01:01:57;1.67;;;1.48;;
20369;SDS011;10344;47.592;9.600;2022-08-21T01:04:23;2.03;;;1.20;;
20369;SDS011;10344;47.592;9.600;2022-08-21T01:06:49;2.05;;;1.83;;
20369;SDS011;10344;47.592;9.600;2022-08-21T01:09:16;1.58;;;1.33;;
20369;SDS011;10344;47.592;9.600;2022-08-21T01:11:42;1.48;;;1.38;;
20369;SDS011;10344;47.592;9.600;2022-08-21T01:14:08;1.60;;;1.30;;
20369;SDS011;10344;47.592;9.600;2022-08-21T01:16:37;2.45;;;1.38;;
20369;SDS011;10344;47.592;9.600;2022-08-21T01:19:04;1.50;;;1.40;;
20369;SDS011;10344;47.592;9.600;2022-08-21T01:21:36;2.03;;;1.25;;
20369;SDS011;10344;47.592;9.600;2022-08-21T01:24:01;2.53;;;1.60;;
20369;SDS011;10344;47.592;9.600;2022-08-21T01:26:29;1.42;;;1.30;;
20369;SDS011;10344;47.592;9.600;2022-08-21T01:31:26;1.52;;;1.42;;
20369;SDS011;10344;47.592;9.600;2022-08-21T01:33:53;1.50;;;1.40;;
20369;SDS011;10344;47.592;9.600;2022-08-21T01:36:19;1.55;;;1.10;;
20369;SDS011;10344;47.592;9.600;2022-08-21T01:38:45;1.90;;;1.20;;
20369;SDS011;10344;47.592;9.600;2022-08-21T01:41:12;1.40;;;1.30;;
20369;SDS011;10344;47.592;9.600;2022-08-21T01:43:38;1.60;;;1.40;;
20369;SDS011;10344;47.592;9.600;2022-08-21T01:46:07;1.30;;;1.20;;
20369;SDS011;10344;47.592;9.600;2022-08-21T01:48:34;2.03;;;1.40;;
20369;SDS011;10344;47.592;9.600;2022-08-21T01:51:01;1.70;;;1.30;;
20369;SDS011;10344;47.592;9.600;2022-08-21T01:53:29;1.30;;;1.20;;
20369;SDS011;10344;47.592;9.600;2022-08-21T01:55:55;1.50;;;1.10;;
20369;SDS011;10344;47.592;9.600;2022-08-21T01:58:20;1.50;;;1.40;;
20369;SDS011;10344;47.592;9.600;2022-08-21T02:00:46;1.27;;;1.17;;
20369;SDS011;10344;47.592;9.600;2022-08-21T02:03:12;1.60;;;1.40;;
20369;SDS011;10344;47.592;9.600;2022-08-21T02:05:37;1.23;;;1.13;;
20369;SDS011;10344;47.592;9.600;2022-08-21T02:08:03;1.80;;;1.10;;
20369;SDS011;10344;47.592;9.600;2022-08-21T02:10:31;1.42;;;1.33;;
20369;SDS011;10344;47.592;9.600;2022-08-21T02:13:03;1.70;;;1.40;;
20369;SDS011;10344;47.592;9.600;2022-08-21T02:15:50;1.90;;;1.20;;
20369;SDS011;10344;47.592;9.600;2022-08-21T02:18:19;1.55;;;1.27;;
20369;SDS011;10344;47.592;9.600;2022-08-21T02:20:45;1.38;;;1.20;;
20369;SDS011;10344;47.592;9.600;2022-08-21T02:23:13;1.85;;;1.17;;
20369;SDS011;10344;47.592;9.600;2022-08-21T02:25:46;1.60;;;1.50;;
20369;SDS011;10344;47.592;9.600;2022-08-21T02:28:16;1.55;;;1.45;;
20369;SDS011;10344;47.592;9.600;2022-08-21T02:41:18;2.25;;;1.70;;
20369;SDS011;10344;47.592;9.600;2022-08-21T02:54:02;1.60;;;1.50;;
20369;SDS011;10344;47.592;9.600;2022-08-21T03:00:19;1.77;;;1.58;;
20369;SDS011;10344;47.592;9.600;2022-08-21T03:03:24;1.70;;;1.30;;
20369;SDS011;10344;47.592;9.600;2022-08-21T03:05:59;1.30;;;1.20;;
20369;SDS011;10344;47.592;9.600;2022-08-21T03:12:27;1.67;;;1.25;;
20369;SDS011;10344;47.592;9.600;2022-08-21T03:15:07;1.20;;;1.10;;
20369;SDS011;10344;47.592;9.600;2022-08-21T03:18:16;1.27;;;1.17;;
20369;SDS011;10344;47.592;9.600;2022-08-21T03:20:48;1.30;;;1.20;;
20369;SDS011;10344;47.592;9.600;2022-08-21T03:23:15;1.30;;;1.20;;
20369;SDS011;10344;47.592;9.600;2022-08-21T03:25:42;1.00;;;0.90;;
20369;SDS011;10344;47.592;9.600;2022-08-21T03:28:09;1.13;;;1.13;;
20369;SDS011;10344;47.592;9.600;2022-08-21T03:30:39;1.20;;;1.10;;
20369;SDS011;10344;47.592;9.600;2022-08-21T03:33:09;1.42;;;1.13;;
20369;SDS011;10344;47.592;9.600;2022-08-21T03:35:37;1.45;;;1.35;;
20369;SDS011;10344;47.592;9.600;2022-08-21T03:38:37;1.45;;;1.27;;
20369;SDS011;10344;47.592;9.600;2022-08-21T03:41:10;1.40;;;1.10;;
20369;SDS011;10344;47.592;9.600;2022-08-21T03:43:36;1.63;;;1.00;;
20369;SDS011;10344;47.592;9.600;2022-08-21T03:46:06;1.77;;;1.30;;
20369;SDS011;10344;47.592;9.600;2022-08-21T03:48:33;1.15;;;1.00;;
20369;SDS011;10344;47.592;9.600;2022-08-21T03:51:01;1.17;;;1.08;;
20369;SDS011;10344;47.592;9.600;2022-08-21T03:53:28;1.30;;;1.08;;
20369;SDS011;10344;47.592;9.600;2022-08-21T03:58:56;1.20;;;1.05;;
20369;SDS011;10344;47.592;9.600;2022-08-21T04:01:54;1.50;;;1.10;;
20369;SDS011;10344;47.592;9.600;2022-08-21T04:04:24;1.25;;;1.15;;
20369;SDS011;10344;47.592;9.600;2022-08-21T04:06:50;0.90;;;0.90;;
20369;SDS011;10344;47.592;9.600;2022-08-21T04:09:17;1.38;;;1.15;;
20369;SDS011;10344;47.592;9.600;2022-08-21T04:11:43;1.20;;;1.10;;
20369;SDS011;10344;47.592;9.600;2022-08-21T04:14:12;1.10;;;1.00;;
20369;SDS011;10344;47.592;9.600;2022-08-21T04:16:39;1.20;;;1.10;;
20369;SDS011;10344;47.592;9.600;2022-08-21T04:19:06;1.35;;;1.00;;
20369;SDS011;10344;47.592;9.600;2022-08-21T04:21:34;1.13;;;1.00;;
20369;SDS011;10344;47.592;9.600;2022-08-21T04:24:02;1.13;;;1.08;;
20369;SDS011;10344;47.592;9.600;2022-08-21T04:26:29;1.33;;;1.10;;
20369;SDS011;10344;47.592;9.600;2022-08-21T04:28:56;1.30;;;1.20;;
20369;SDS011;10344;47.592;9.600;2022-08-21T04:31:23;0.90;;;0.90;;
20369;SDS011;10344;47.592;9.600;2022-08-21T04:33:50;1.15;;;1.00;;
20369;SDS011;10344;47.592;9.600;2022-08-21T04:36:16;1.20;;;1.10;;
20369;SDS011;10344;47.592;9.600;2022-08-21T04:38:42;1.10;;;0.90;;
20369;SDS011;10344;47.592;9.600;2022-08-21T04:41:08;1.73;;;1.10;;
20369;SDS011;10344;47.592;9.600;2022-08-21T04:43:37;1.60;;;1.20;;
20369;SDS011;10344;47.592;9.600;2022-08-21T04:46:03;1.80;;;0.80;;
20369;SDS011;10344;47.592;9.600;2022-08-21T04:48:29;1.17;;;1.00;;
20369;SDS011;10344;47.592;9.600;2022-08-21T04:51:12;0.90;;;0.90;;
20369;SDS011;10344;47.592;9.600;2022-08-21T04:54:09;1.05;;;1.05;;
20369;SDS011;10344;47.592;9.600;2022-08-21T04:56:40;2.10;;;1.20;;
20369;SDS011;10344;47.592;9.600;2022-08-21T04:59:14;1.60;;;0.90;;
20369;SDS011;10344;47.592;9.600;2022-08-21T05:01:44;1.83;;;1.10;;
20369;SDS011;10344;47.592;9.600;2022-08-21T05:04:28;0.95;;;0.93;;
20369;SDS011;10344;47.592;9.600;2022-08-21T05:06:58;3.37;;;1.20;;
20369;SDS011;10344;47.592;9.600;2022-08-21T05:09:29;0.90;;;0.90;;
20369;SDS011;10344;47.592;9.600;2022-08-21T05:11:55;1.17;;;1.08;;
20369;SDS011;10344;47.592;9.600;2022-08-21T05:14:22;1.10;;;1.00;;
20369;SDS011;10344;47.592;9.600;2022-08-21T05:16:52;1.95;;;1.10;;
20369;SDS011;10344;47.592;9.600;2022-08-21T05:19:17;1.20;;;1.10;;
20369;SDS011;10344;47.592;9.600;2022-08-21T05:21:44;2.55;;;1.08;;
20369;SDS011;10344;47.592;9.600;2022-08-21T05:24:10;1.08;;;0.98;;
20369;SDS011;10344;47.592;9.600;2022-08-21T05:26:37;1.20;;;1.10;;
20369;SDS011;10344;47.592;9.600;2022-08-21T05:29:03;2.35;;;1.20;;
20369;SDS011;10344;47.592;9.600;2022-08-21T05:31:33;1.50;;;1.10;;
20369;SDS011;10344;47.592;9.600;2022-08-21T05:34:02;1.00;;;1.00;;
20369;SDS011;10344;47.592;9.600;2022-08-21T05:36:31;1.40;;;1.00;;
20369;SDS011;10344;47.592;9.600;2022-08-21T05:38:57;1.23;;;1.13;;
20369;SDS011;10344;47.592;9.600;2022-08-21T05:41:23;2.00;;;1.10;;
20369;SDS011;10344;47.592;9.600;2022-08-21T05:43:48;1.17;;;1.10;;
20369;SDS011;10344;47.592;9.600;2022-08-21T05:46:14;1.20;;;1.10;;
20369;SDS011;10344;47.592;9.600;2022-08-21T05:48:44;2.25;;;1.15;;
20369;SDS011;10344;47.592;9.600;2022-08-21T05:51:13;0.90;;;0.90;;
20369;SDS011;10344;47.592;9.600;2022-08-21T05:53:41;1.60;;;1.00;;
20369;SDS011;10344;47.592;9.600;2022-08-21T05:56:10;0.90;;;0.90;;
20369;SDS011;10344;47.592;9.600;2022-08-21T05:58:36;1.17;;;1.08;;
20369;SDS011;10344;47.592;9.600;2022-08-21T06:01:02;0.80;;;0.80;;
20369;SDS011;10344;47.592;9.600;2022-08-21T06:03:30;1.08;;;0.98;;
20369;SDS011;10344;47.592;9.600;2022-08-21T06:06:00;0.90;;;0.90;;
20369;SDS011;10344;47.592;9.600;2022-08-21T06:08:27;1.20;;;1.10;;
20369;SDS011;10344;47.592;9.600;2022-08-21T06:10:56;1.08;;;1.00;;
20369;SDS011;10344;47.592;9.600;2022-08-21T06:13:24;1.52;;;1.20;;
20369;SDS011;10344;47.592;9.600;2022-08-21T06:15:50;2.28;;;1.10;;
20369;SDS011;10344;47.592;9.600;2022-08-21T06:18:25;1.20;;;1.10;;
20369;SDS011;10344;47.592;9.600;2022-08-21T06:20:50;1.13;;;1.02;;
20369;SDS011;10344;47.592;9.600;2022-08-21T06:23:16;1.25;;;1.15;;
20369;SDS011;10344;47.592;9.600;2022-08-21T06:25:44;2.15;;;1.30;;
20369;SDS011;10344;47.592;9.600;2022-08-21T06:28:10;2.00;;;1.05;;
20369;SDS011;10344;47.592;9.600;2022-08-21T06:30:37;1.33;;;1.02;;
20369;SDS011;10344;47.592;9.600;2022-08-21T06:33:04;0.80;;;0.80;;
20369;SDS011;10344;47.592;9.600;2022-08-21T06:35:32;1.08;;;1.00;;
20369;SDS011;10344;47.592;9.600;2022-08-21T06:37:59;1.23;;;1.10;;
20369;SDS011;10344;47.592;9.600;2022-08-21T06:40:28;1.50;;;1.02;;
20369;SDS011;10344;47.592;9.600;2022-08-21T06:42:57;1.70;;;1.40;;
20369;SDS011;10344;47.592;9.600;2022-08-21T06:45:23;1.27;;;0.95;;
20369;SDS011;10344;47.592;9.600;2022-08-21T06:47:49;1.10;;;1.00;;
20369;SDS011;10344;47.592;9.600;2022-08-21T06:50:15;1.10;;;1.00;;
20369;SDS011;10344;47.592;9.600;2022-08-21T06:52:40;1.05;;;0.80;;
20369;SDS011;10344;47.592;9.600;2022-08-21T06:55:07;0.90;;;0.90;;
20369;SDS011;10344;47.592;9.600;2022-08-21T06:57:34;0.90;;;0.90;;
20369;SDS011;10344;47.592;9.600;2022-08-21T07:00:00;0.93;;;0.70;;
20369;SDS011;10344;47.592;9.600;2022-08-21T07:02:29;1.00;;;0.70;;
20369;SDS011;10344;47.592;9.600;2022-08-21T07:07:20;0.60;;;0.50;;
20369;SDS011;10344;47.592;9.600;2022-08-21T07:09:47;2.60;;;0.70;;
20369;SDS011;10344;47.592;9.600;2022-08-21T07:12:13;0.70;;;0.70;;
20369;SDS011;10344;47.592;9.600;2022-08-21T07:19:30;0.77;;;0.63;;
20369;SDS011;10344;47.592;9.600;2022-08-21T07:21:57;0.50;;;0.50;;
20369;SDS011;10344;47.592;9.600;2022-08-21T07:24:25;0.65;;;0.50;;
20369;SDS011;10344;47.592;9.600;2022-08-21T07:26:50;0.90;;;0.37;;
20369;SDS011;10344;47.592;9.600;2022-08-21T07:29:16;0.80;;;0.60;;
20369;SDS011;10344;47.592;9.600;2022-08-21T07:31:42;0.30;;;0.30;;
20369;SDS011;10344;47.592;9.600;2022-08-21T07:34:08;0.40;;;0.40;;
20369;SDS011;10344;47.592;9.600;2022-08-21T07:36:33;0.50;;;0.30;;
20369;SDS011;10344;47.592;9.600;2022-08-21T07:38:59;0.82;;;0.60;;
20369;SDS011;10344;47.592;9.600;2022-08-21T07:41:26;0.60;;;0.60;;
20369;SDS011;10344;47.592;9.600;2022-08-21T07:43:54;0.57;;;0.47;;
20369;SDS011;10344;47.592;9.600;2022-08-21T07:46:23;0.50;;;0.40;;
20369;SDS011;10344;47.592;9.600;2022-08-21T07:48:52;1.02;;;0.47;;
20369;SDS011;10344;47.592;9.600;2022-08-21T07:51:18;0.80;;;0.70;;
20369;SDS011;10344;47.592;9.600;2022-08-21T07:53:49;0.67;;;0.50;;
20369;SDS011;10344;47.592;9.600;2022-08-21T07:56:16;1.30;;;0.60;;
20369;SDS011;10344;47.592;9.600;2022-08-21T07:58:41;0.60;;;0.53;;
20369;SDS011;10344;47.592;9.600;2022-08-21T08:01:07;1.20;;;0.60;;
20369;SDS011;10344;47.592;9.600;2022-08-21T08:03:33;1.38;;;0.60;;
20369;SDS011;10344;47.592;9.600;2022-08-21T08:05:58;0.70;;;0.60;;
20369;SDS011;10344;47.592;9.600;2022-08-21T08:08:24;0.80;;;0.60;;
20369;SDS011;10344;47.592;9.600;2022-08-21T08:10:50;0.90;;;0.70;;
20369;SDS011;10344;47.592;9.600;2022-08-21T08:13:18;1.30;;;0.60;;
20369;SDS011;10344;47.592;9.600;2022-08-21T08:15:44;1.77;;;0.70;;
20369;SDS011;10344;47.592;9.600;2022-08-21T08:18:12;1.00;;;0.70;;
20369;SDS011;10344;47.592;9.600;2022-08-21T08:20:38;0.70;;;0.70;;
20369;SDS011;10344;47.592;9.600;2022-08-21T08:23:06;0.63;;;0.63;;
20369;SDS011;10344;47.592;9.600;2022-08-21T08:25:34;0.80;;;0.60;;
20369;SDS011;10344;47.592;9.600;2022-08-21T08:28:00;1.40;;;0.80;;
20369;SDS011;10344;47.592;9.600;2022-08-21T08:30:26;1.00;;;0.60;;
20369;SDS011;10344;47.592;9.600;2022-08-21T08:32:54;0.82;;;0.70;;
20369;SDS011;10344;47.592;9.600;2022-08-21T08:35:21;0.70;;;0.70;;
20369;SDS011;10344;47.592;9.600;2022-08-21T08:37:50;1.40;;;0.90;;
20369;SDS011;10344;47.592;9.600;2022-08-21T08:41:00;1.27;;;1.10;;
20369;SDS011;10344;47.592;9.600;2022-08-21T08:43:16;1.30;;;1.08;;
20369;SDS011;10344;47.592;9.600;2022-08-21T08:45:44;1.27;;;1.15;;
20369;SDS011;10344;47.592;9.600;2022-08-21T08:48:13;1.63;;;1.15;;
20369;SDS011;10344;47.592;9.600;2022-08-21T08:50:59;1.77;;;1.10;;
20369;SDS011;10344;47.592;9.600;2022-08-21T08:53:29;1.20;;;1.10;;
20369;SDS011;10344;47.592;9.600;2022-08-21T08:55:57;1.50;;;1.40;;
20369;SDS011;10344;47.592;9.600;2022-08-21T09:08:32;2.20;;;1.35;;
20369;SDS011;10344;47.592;9.600;2022-08-21T09:15:01;1.20;;;1.10;;
20369;SDS011;10344;47.592;9.600;2022-08-21T09:17:22;1.55;;;1.45;;
20369;SDS011;10344;47.592;9.600;2022-08-21T09:25:03;1.80;;;1.70;;
20369;SDS011;10344;47.592;9.600;2022-08-21T09:27:41;1.50;;;1.40;;
20369;SDS011;10344;47.592;9.600;2022-08-21T10:10:44;1.50;;;1.40;;
20369;SDS011;10344;47.592;9.600;2022-08-21T10:18:24;1.30;;;1.20;;
20369;SDS011;10344;47.592;9.600;2022-08-21T10:21:15;0.98;;;0.98;;
20369;SDS011;10344;47.592;9.600;2022-08-21T10:44:53;1.63;;;1.52;;
20369;SDS011;10344;47.592;9.600;2022-08-21T10:47:53;1.90;;;1.50;;
20369;SDS011;10344;47.592;9.600;2022-08-21T10:50:28;1.95;;;1.50;;
20369;SDS011;10344;47.592;9.600;2022-08-21T10:58:40;2.13;;;1.20;;
20369;SDS011;10344;47.592;9.600;2022-08-21T11:11:36;2.08;;;1.33;;
20369;SDS011;10344;47.592;9.600;2022-08-21T11:14:56;1.95;;;1.30;;
20369;SDS011;10344;47.592;9.600;2022-08-21T11:17:05;1.10;;;1.00;;
20369;SDS011;10344;47.592;9.600;2022-08-21T11:19:50;1.65;;;1.20;;
20369;SDS011;10344;47.592;9.600;2022-08-21T11:22:33;1.50;;;1.23;;
20369;SDS011;10344;47.592;9.600;2022-08-21T11:47:54;3.30;;;1.00;;
20369;SDS011;10344;47.592;9.600;2022-08-21T11:50:31;1.55;;;1.00;;
20369;SDS011;10344;47.592;9.600;2022-08-21T11:55:52;1.05;;;0.95;;
20369;SDS011;10344;47.592;9.600;2022-08-21T11:58:35;1.33;;;0.97;;
20369;SDS011;10344;47.592;9.600;2022-08-21T12:01:08;1.42;;;1.10;;
20369;SDS011;10344;47.592;9.600;2022-08-21T12:03:38;2.08;;;1.10;;
20369;SDS011;10344;47.592;9.600;2022-08-21T12:06:15;1.63;;;1.20;;
20369;SDS011;10344;47.592;9.600;2022-08-21T12:09:04;1.40;;;1.00;;
20369;SDS011;10344;47.592;9.600;2022-08-21T12:12:12;1.17;;;1.00;;
20369;SDS011;10344;47.592;9.600;2022-08-21T12:29:37;2.53;;;1.15;;
20369;SDS011;10344;47.592;9.600;2022-08-21T12:37:28;2.37;;;1.20;;
20369;SDS011;10344;47.592;9.600;2022-08-21T12:53:12;2.65;;;1.42;;
20369;SDS011;10344;47.592;9.600;2022-08-21T13:03:13;2.40;;;1.23;;
20369;SDS011;10344;47.592;9.600;2022-08-21T13:05:39;1.80;;;1.20;;
20369;SDS011;10344;47.592;9.600;2022-08-21T13:08:06;3.07;;;1.10;;
20369;SDS011;10344;47.592;9.600;2022-08-21T13:10:35;1.75;;;1.10;;
20369;SDS011;10344;47.592;9.600;2022-08-21T13:48:25;1.30;;;1.00;;
20369;SDS011;10344;47.592;9.600;2022-08-21T14:03:38;1.35;;;0.82;;
20369;SDS011;10344;47.592;9.600;2022-08-21T14:06:20;1.70;;;0.80;;
20369;SDS011;10344;47.592;9.600;2022-08-21T14:08:56;1.07;;;0.80;;
20369;SDS011;10344;47.592;9.600;2022-08-21T14:11:25;0.80;;;0.70;;
20369;SDS011;10344;47.592;9.600;2022-08-21T14:16:21;0.90;;;0.80;;
20369;SDS011;10344;47.592;9.600;2022-08-21T14:21:52;1.27;;;0.88;;
20369;SDS011;10344;47.592;9.600;2022-08-21T14:29:27;1.27;;;0.90;;
20369;SDS011;10344;47.592;9.600;2022-08-21T14:31:58;1.48;;;0.80;;
20369;SDS011;10344;47.592;9.600;2022-08-21T14:34:26;1.35;;;0.90;;
20369;SDS011;10344;47.592;9.600;2022-08-21T14:36:53;3.10;;;0.90;;
20369;SDS011;10344;47.592;9.600;2022-08-21T14:39:19;1.20;;;0.82;;
20369;SDS011;10344;47.592;9.600;2022-08-21T14:41:46;1.20;;;0.80;;
20369;SDS011;10344;47.592;9.600;2022-08-21T14:44:14;1.92;;;0.80;;
20369;SDS011;10344;47.592;9.600;2022-08-21T14:46:41;0.88;;;0.85;;
20369;SDS011;10344;47.592;9.600;2022-08-21T14:49:07;1.27;;;0.80;;
20369;SDS011;10344;47.592;9.600;2022-08-21T14:51:32;0.97;;;0.87;;
20369;SDS011;10344;47.592;9.600;2022-08-21T14:53:58;1.40;;;0.90;;
20369;SDS011;10344;47.592;9.600;2022-08-21T14:56:24;1.13;;;0.63;;
20369;SDS011;10344;47.592;9.600;2022-08-21T15:15:53;1.45;;;0.90;;
20369;SDS011;10344;47.592;9.600;2022-08-21T15:18:21;1.45;;;0.80;;
20369;SDS011;10344;47.592;9.600;2022-08-21T15:20:48;1.43;;;0.83;;
20369;SDS011;10344;47.592;9.600;2022-08-21T15:23:15;0.85;;;0.70;;
20369;SDS011;10344;47.592;9.600;2022-08-21T15:25:44;1.30;;;0.85;;
20369;SDS011;10344;47.592;9.600;2022-08-21T15:28:16;1.60;;;0.80;;
20369;SDS011;10344;47.592;9.600;2022-08-21T15:30:43;1.40;;;0.90;;
20369;SDS011;10344;47.592;9.600;2022-08-21T15:33:10;1.80;;;1.02;;
20369;SDS011;10344;47.592;9.600;2022-08-21T15:35:37;2.20;;;0.90;;
20369;SDS011;10344;47.592;9.600;2022-08-21T15:38:04;1.92;;;0.82;;
20369;SDS011;10344;47.592;9.600;2022-08-21T15:40:30;1.00;;;0.80;;
20369;SDS011;10344;47.592;9.600;2022-08-21T15:42:57;1.60;;;1.20;;
20369;SDS011;10344;47.592;9.600;2022-08-21T15:45:25;1.10;;;1.00;;
20369;SDS011;10344;47.592;9.600;2022-08-21T16:07:37;1.88;;;1.15;;
20369;SDS011;10344;47.592;9.600;2022-08-21T16:10:03;1.13;;;0.93;;
20369;SDS011;10344;47.592;9.600;2022-08-21T16:12:30;1.77;;;1.10;;
20369;SDS011;10344;47.592;9.600;2022-08-21T16:14:59;1.52;;;1.00;;
20369;SDS011;10344;47.592;9.600;2022-08-21T16:17:29;1.73;;;1.13;;
20369;SDS011;10344;47.592;9.600;2022-08-21T16:19:58;2.13;;;1.40;;
20369;SDS011;10344;47.592;9.600;2022-08-21T16:22:26;1.33;;;1.10;;
20369;SDS011;10344;47.592;9.600;2022-08-21T16:24:52;1.33;;;1.10;;
20369;SDS011;10344;47.592;9.600;2022-08-21T16:27:17;2.35;;;1.20;;
20369;SDS011;10344;47.592;9.600;2022-08-21T16:29:43;1.90;;;1.03;;
20369;SDS011;10344;47.592;9.600;2022-08-21T16:32:10;1.38;;;1.05;;
20369;SDS011;10344;47.592;9.600;2022-08-21T16:34:37;1.17;;;0.77;;
20369;SDS011;10344;47.592;9.600;2022-08-21T16:54:09;2.33;;;1.30;;
20369;SDS011;10344;47.592;9.600;2022-08-21T16:56:35;1.70;;;1.17;;
20369;SDS011;10344;47.592;9.600;2022-08-21T16:59:01;1.58;;;0.93;;
20369;SDS011;10344;47.592;9.600;2022-08-21T17:01:29;1.13;;;1.00;;
20369;SDS011;10344;47.592;9.600;2022-08-21T17:03:57;1.55;;;1.08;;
20369;SDS011;10344;47.592;9.600;2022-08-21T17:06:25;3.03;;;1.20;;
20369;SDS011;10344;47.592;9.600;2022-08-21T17:08:51;2.00;;;1.30;;
20369;SDS011;10344;47.592;9.600;2022-08-21T17:14:07;1.45;;;1.00;;
20369;SDS011;10344;47.592;9.600;2022-08-21T17:16:37;2.50;;;1.30;;
20369;SDS011;10344;47.592;9.600;2022-08-21T17:19:08;1.98;;;1.23;;
20369;SDS011;10344;47.592;9.600;2022-08-21T17:21:36;1.27;;;1.17;;
20369;SDS011;10344;47.592;9.600;2022-08-21T17:24:02;1.10;;;1.00;;
20369;SDS011;10344;47.592;9.600;2022-08-21T17:26:28;1.20;;;1.00;;
20369;SDS011;10344;47.592;9.600;2022-08-21T17:28:54;1.95;;;1.27;;
20369;SDS011;10344;47.592;9.600;2022-08-21T17:43:37;0.95;;;0.90;;
20369;SDS011;10344;47.592;9.600;2022-08-21T17:46:08;1.98;;;1.00;;
20369;SDS011;10344;47.592;9.600;2022-08-21T17:48:36;1.55;;;1.08;;
20369;SDS011;10344;47.592;9.600;2022-08-21T17:51:01;1.00;;;0.90;;
20369;SDS011;10344;47.592;9.600;2022-08-21T17:53:27;1.88;;;1.10;;
20369;SDS011;10344;47.592;9.600;2022-08-21T17:55:53;1.20;;;1.10;;
20369;SDS011;10344;47.592;9.600;2022-08-21T17:58:19;1.50;;;1.30;;
20369;SDS011;10344;47.592;9.600;2022-08-21T18:00:44;1.20;;;1.10;;
20369;SDS011;10344;47.592;9.600;2022-08-21T18:03:13;1.38;;;1.23;;
20369;SDS011;10344;47.592;9.600;2022-08-21T18:08:11;1.67;;;1.20;;
20369;SDS011;10344;47.592;9.600;2022-08-21T18:10:37;1.53;;;1.37;;
20369;SDS011;10344;47.592;9.600;2022-08-21T18:13:05;1.53;;;1.40;;
20369;SDS011;10344;47.592;9.600;2022-08-21T18:18:02;1.63;;;1.50;;
20369;SDS011;10344;47.592;9.600;2022-08-21T18:20:30;2.90;;;1.60;;
20369;SDS011;10344;47.592;9.600;2022-08-21T18:25:24;2.17;;;1.70;;
20369;SDS011;10344;47.592;9.600;2022-08-21T18:27:50;3.25;;;1.50;;
20369;SDS011;10344;47.592;9.600;2022-08-21T18:30:17;3.67;;;1.50;;
20369;SDS011;10344;47.592;9.600;2022-08-21T18:32:46;2.47;;;1.52;;
20369;SDS011;10344;47.592;9.600;2022-08-21T18:35:13;3.05;;;1.60;;
20369;SDS011;10344;47.592;9.600;2022-08-21T18:37:42;2.65;;;1.70;;
20369;SDS011;10344;47.592;9.600;2022-08-21T18:45:05;2.35;;;1.42;;
20369;SDS011;10344;47.592;9.600;2022-08-21T18:50:08;2.00;;;1.40;;
20369;SDS011;10344;47.592;9.600;2022-08-21T18:52:36;1.85;;;1.35;;
20369;SDS011;10344;47.592;9.600;2022-08-21T18:55:03;1.63;;;1.50;;
20369;SDS011;10344;47.592;9.600;2022-08-21T18:57:29;1.70;;;1.40;;
20369;SDS011;10344;47.592;9.600;2022-08-21T18:59:57;1.48;;;1.30;;
20369;SDS011;10344;47.592;9.600;2022-08-21T19:02:24;1.45;;;1.35;;
20369;SDS011;10344;47.592;9.600;2022-08-21T19:04:49;2.20;;;1.40;;
20369;SDS011;10344;47.592;9.600;2022-08-21T19:07:15;1.45;;;1.35;;
20369;SDS011;10344;47.592;9.600;2022-08-21T19:09:43;1.65;;;1.50;;
20369;SDS011;10344;47.592;9.600;2022-08-21T19:12:10;2.17;;;1.45;;
20369;SDS011;10344;47.592;9.600;2022-08-21T19:14:42;2.20;;;1.77;;
20369;SDS011;10344;47.592;9.600;2022-08-21T19:17:08;1.90;;;1.67;;
20369;SDS011;10344;47.592;9.600;2022-08-21T19:19:33;2.15;;;1.80;;
20369;SDS011;10344;47.592;9.600;2022-08-21T19:22:00;3.00;;;1.67;;
20369;SDS011;10344;47.592;9.600;2022-08-21T19:24:26;1.80;;;1.70;;
20369;SDS011;10344;47.592;9.600;2022-08-21T19:26:53;2.13;;;1.90;;
20369;SDS011;10344;47.592;9.600;2022-08-21T19:29:19;2.20;;;2.00;;
20369;SDS011;10344;47.592;9.600;2022-08-21T19:31:45;2.03;;;1.63;;
20369;SDS011;10344;47.592;9.600;2022-08-21T19:36:45;1.98;;;1.70;;
20369;SDS011;10344;47.592;9.600;2022-08-21T19:39:11;1.80;;;1.70;;
20369;SDS011;10344;47.592;9.600;2022-08-21T19:41:39;2.13;;;1.63;;
20369;SDS011;10344;47.592;9.600;2022-08-21T19:44:12;3.60;;;2.00;;
20369;SDS011;10344;47.592;9.600;2022-08-21T19:46:41;2.00;;;1.60;;
20369;SDS011;10344;47.592;9.600;2022-08-21T19:49:22;3.00;;;1.88;;
20369;SDS011;10344;47.592;9.600;2022-08-21T19:51:51;1.80;;;1.65;;
20369;SDS011;10344;47.592;9.600;2022-08-21T19:54:20;1.77;;;1.65;;
20369;SDS011;10344;47.592;9.600;2022-08-21T19:56:47;1.60;;;1.50;;
20369;SDS011;10344;47.592;9.600;2022-08-21T19:59:14;2.07;;;1.73;;
20369;SDS011;10344;47.592;9.600;2022-08-21T20:01:43;1.67;;;1.50;;
20369;SDS011;10344;47.592;9.600;2022-08-21T20:04:09;1.67;;;1.58;;
20369;SDS011;10344;47.592;9.600;2022-08-21T20:06:35;2.88;;;1.70;;
20369;SDS011;10344;47.592;9.600;2022-08-21T20:09:02;1.98;;;1.70;;
20369;SDS011;10344;47.592;9.600;2022-08-21T20:11:31;2.13;;;1.40;;
20369;SDS011;10344;47.592;9.600;2022-08-21T20:14:03;2.50;;;2.00;;
20369;SDS011;10344;47.592;9.600;2022-08-21T20:16:29;2.92;;;1.67;;
20369;SDS011;10344;47.592;9.600;2022-08-21T20:18:55;1.70;;;1.60;;
20369;SDS011;10344;47.592;9.600;2022-08-21T20:21:21;2.00;;;1.70;;
20369;SDS011;10344;47.592;9.600;2022-08-21T20:23:46;2.30;;;1.87;;
20369;SDS011;10344;47.592;9.600;2022-08-21T20:26:15;2.70;;;2.00;;
20369;SDS011;10344;47.592;9.600;2022-08-21T20:28:43;2.47;;;1.90;;
20369;SDS011;10344;47.592;9.600;2022-08-21T20:31:11;2.35;;;1.60;;
20369;SDS011;10344;47.592;9.600;2022-08-21T20:33:36;2.17;;;1.77;;
20369;SDS011;10344;47.592;9.600;2022-08-21T20:36:02;3.60;;;1.80;;
20369;SDS011;10344;47.592;9.600;2022-08-21T20:38:30;1.53;;;1.43;;
20369;SDS011;10344;47.592;9.600;2022-08-21T20:40:56;2.17;;;1.70;;
20369;SDS011;10344;47.592;9.600;2022-08-21T20:43:22;1.70;;;1.43;;
20369;SDS011;10344;47.592;9.600;2022-08-21T20:45:48;1.97;;;1.70;;
20369;SDS011;10344;47.592;9.600;2022-08-21T20:48:29;2.95;;;1.95;;
20369;SDS011;10344;47.592;9.600;2022-08-21T20:51:10;3.08;;;1.95;;
20369;SDS011;10344;47.592;9.600;2022-08-21T21:02:12;2.50;;;2.05;;